sensor_id;sensor_type;location;lat;lon;timestamp;temperature;humidity
68746;SHT31;73143;45.456;11.064;2023-12-20T00:00:15;5.79;68.13
68746;SHT31;73143;45.456;11.064;2023-12-20T00:02:54;5.76;68.01
68746;SHT31;73143;45.456;11.064;2023-12-20T00:05:31;5.73;68.11
68746;SHT31;73143;45.456;11.064;2023-12-20T00:08:10;5.68;68.12
68746;SHT31;73143;45.456;11.064;2023-12-20T00:10:46;5.66;68.15
68746;SHT31;73143;45.456;11.064;2023-12-20T00:13:23;5.63;68.03
68746;SHT31;73143;45.456;11.064;2023-12-20T00:16:00;5.61;67.86
68746;SHT31;73143;45.456;11.064;2023-12-20T00:18:38;5.61;67.63
68746;SHT31;73143;45.456;11.064;2023-12-20T00:21:15;5.62;67.58
68746;SHT31;73143;45.456;11.064;2023-12-20T00:23:51;5.63;67.50
68746;SHT31;73143;45.456;11.064;2023-12-20T00:26:29;5.65;67.50
68746;SHT31;73143;45.456;11.064;2023-12-20T00:29:06;5.63;67.65
68746;SHT31;73143;45.456;11.064;2023-12-20T00:31:44;5.55;68.16
68746;SHT31;73143;45.456;11.064;2023-12-20T00:34:21;5.44;68.78
68746;SHT31;73143;45.456;11.064;2023-12-20T00:36:58;5.37;69.26
68746;SHT31;73143;45.456;11.064;2023-12-20T00:39:35;5.29;69.52
68746;SHT31;73143;45.456;11.064;2023-12-20T00:42:12;5.22;69.80
68746;SHT31;73143;45.456;11.064;2023-12-20T00:44:49;5.19;69.87
68746;SHT31;73143;45.456;11.064;2023-12-20T00:47:26;5.18;69.97
68746;SHT31;73143;45.456;11.064;2023-12-20T00:50:04;5.18;69.96
68746;SHT31;73143;45.456;11.064;2023-12-20T00:52:46;5.16;70.05
68746;SHT31;73143;45.456;11.064;2023-12-20T00:55:25;5.16;69.95
68746;SHT31;73143;45.456;11.064;2023-12-20T00:58:02;5.16;69.90
68746;SHT31;73143;45.456;11.064;2023-12-20T01:00:39;5.19;69.57
68746;SHT31;73143;45.456;11.064;2023-12-20T01:03:16;5.19;69.38
68746;SHT31;73143;45.456;11.064;2023-12-20T01:05:53;5.19;69.50
68746;SHT31;73143;45.456;11.064;2023-12-20T01:08:31;5.19;69.50
68746;SHT31;73143;45.456;11.064;2023-12-20T01:11:08;5.20;69.40
68746;SHT31;73143;45.456;11.064;2023-12-20T01:13:45;5.18;69.59
68746;SHT31;73143;45.456;11.064;2023-12-20T01:16:22;5.18;69.70
68746;SHT31;73143;45.456;11.064;2023-12-20T01:18:59;5.18;69.55
68746;SHT31;73143;45.456;11.064;2023-12-20T01:21:36;5.15;69.40
68746;SHT31;73143;45.456;11.064;2023-12-20T01:24:13;5.15;69.34
68746;SHT31;73143;45.456;11.064;2023-12-20T01:26:50;5.16;69.20
68746;SHT31;73143;45.456;11.064;2023-12-20T01:29:27;5.15;69.01
68746;SHT31;73143;45.456;11.064;2023-12-20T01:32:05;5.14;69.00
68746;SHT31;73143;45.456;11.064;2023-12-20T01:34:42;5.12;69.16
68746;SHT31;73143;45.456;11.064;2023-12-20T01:37:18;5.14;69.28
68746;SHT31;73143;45.456;11.064;2023-12-20T01:39:55;5.14;69.20
68746;SHT31;73143;45.456;11.064;2023-12-20T01:42:32;5.14;69.20
68746;SHT31;73143;45.456;11.064;2023-12-20T01:45:12;5.12;69.15
68746;SHT31;73143;45.456;11.064;2023-12-20T01:47:50;5.11;69.05
68746;SHT31;73143;45.456;11.064;2023-12-20T01:50:28;5.14;68.78
68746;SHT31;73143;45.456;11.064;2023-12-20T01:53:07;5.16;68.69
68746;SHT31;73143;45.456;11.064;2023-12-20T01:55:47;5.18;68.66
68746;SHT31;73143;45.456;11.064;2023-12-20T01:58:26;5.20;68.70
68746;SHT31;73143;45.456;11.064;2023-12-20T02:01:03;5.19;68.70
68746;SHT31;73143;45.456;11.064;2023-12-20T02:03:41;5.13;68.80
68746;SHT31;73143;45.456;11.064;2023-12-20T02:06:19;5.07;68.90
68746;SHT31;73143;45.456;11.064;2023-12-20T02:09:00;5.03;68.91
68746;SHT31;73143;45.456;11.064;2023-12-20T02:11:38;4.93;69.32
68746;SHT31;73143;45.456;11.064;2023-12-20T02:14:15;4.86;69.77
68746;SHT31;73143;45.456;11.064;2023-12-20T02:16:53;4.81;69.98
68746;SHT31;73143;45.456;11.064;2023-12-20T02:19:30;4.79;69.98
68746;SHT31;73143;45.456;11.064;2023-12-20T02:22:09;4.76;69.82
68746;SHT31;73143;45.456;11.064;2023-12-20T02:24:46;4.72;70.00
68746;SHT31;73143;45.456;11.064;2023-12-20T02:27:23;4.69;70.12
68746;SHT31;73143;45.456;11.064;2023-12-20T02:30:01;4.65;70.62
68746;SHT31;73143;45.456;11.064;2023-12-20T02:32:42;4.62;70.97
68746;SHT31;73143;45.456;11.064;2023-12-20T02:35:19;4.62;71.38
68746;SHT31;73143;45.456;11.064;2023-12-20T02:37:56;4.66;71.42
68746;SHT31;73143;45.456;11.064;2023-12-20T02:40:34;4.73;71.20
68746;SHT31;73143;45.456;11.064;2023-12-20T02:43:18;4.77;71.01
68746;SHT31;73143;45.456;11.064;2023-12-20T02:45:55;4.77;70.97
68746;SHT31;73143;45.456;11.064;2023-12-20T02:48:32;4.77;70.92
68746;SHT31;73143;45.456;11.064;2023-12-20T02:51:09;4.72;70.80
68746;SHT31;73143;45.456;11.064;2023-12-20T02:53:46;4.66;70.84
68746;SHT31;73143;45.456;11.064;2023-12-20T02:56:22;4.61;70.76
68746;SHT31;73143;45.456;11.064;2023-12-20T02:59:00;4.56;70.47
68746;SHT31;73143;45.456;11.064;2023-12-20T03:01:37;4.51;70.46
68746;SHT31;73143;45.456;11.064;2023-12-20T03:04:18;4.46;70.80
68746;SHT31;73143;45.456;11.064;2023-12-20T03:06:55;4.48;70.98
68746;SHT31;73143;45.456;11.064;2023-12-20T03:09:33;4.48;70.94
68746;SHT31;73143;45.456;11.064;2023-12-20T03:12:30;4.48;70.94
68746;SHT31;73143;45.456;11.064;2023-12-20T03:15:08;4.45;70.81
68746;SHT31;73143;45.456;11.064;2023-12-20T03:17:46;4.43;70.74
68746;SHT31;73143;45.456;11.064;2023-12-20T03:20:23;4.39;70.49
68746;SHT31;73143;45.456;11.064;2023-12-20T03:23:03;4.36;70.64
68746;SHT31;73143;45.456;11.064;2023-12-20T03:25:40;4.32;70.95
68746;SHT31;73143;45.456;11.064;2023-12-20T03:28:18;4.36;71.15
68746;SHT31;73143;45.456;11.064;2023-12-20T03:30:55;4.38;71.11
68746;SHT31;73143;45.456;11.064;2023-12-20T03:33:33;4.39;71.04
68746;SHT31;73143;45.456;11.064;2023-12-20T03:36:09;4.38;70.99
68746;SHT31;73143;45.456;11.064;2023-12-20T03:38:46;4.41;70.90
68746;SHT31;73143;45.456;11.064;2023-12-20T03:41:23;4.41;70.90
68746;SHT31;73143;45.456;11.064;2023-12-20T03:44:00;4.41;70.92
68746;SHT31;73143;45.456;11.064;2023-12-20T03:46:37;4.43;70.99
68746;SHT31;73143;45.456;11.064;2023-12-20T03:49:15;4.47;71.31
68746;SHT31;73143;45.456;11.064;2023-12-20T03:51:52;4.51;71.19
68746;SHT31;73143;45.456;11.064;2023-12-20T03:54:29;4.54;70.83
68746;SHT31;73143;45.456;11.064;2023-12-20T03:57:06;4.58;70.72
68746;SHT31;73143;45.456;11.064;2023-12-20T03:59:43;4.62;70.51
68746;SHT31;73143;45.456;11.064;2023-12-20T04:02:21;4.63;70.44
68746;SHT31;73143;45.456;11.064;2023-12-20T04:04:57;4.65;70.42
68746;SHT31;73143;45.456;11.064;2023-12-20T04:07:34;4.65;70.44
68746;SHT31;73143;45.456;11.064;2023-12-20T04:10:12;4.64;70.76
68746;SHT31;73143;45.456;11.064;2023-12-20T04:12:49;4.55;71.39
68746;SHT31;73143;45.456;11.064;2023-12-20T04:15:27;4.46;72.03
68746;SHT31;73143;45.456;11.064;2023-12-20T04:18:04;4.36;72.27
68746;SHT31;73143;45.456;11.064;2023-12-20T04:20:41;4.33;72.49
68746;SHT31;73143;45.456;11.064;2023-12-20T04:23:18;4.32;72.69
68746;SHT31;73143;45.456;11.064;2023-12-20T04:25:55;4.33;72.80
68746;SHT31;73143;45.456;11.064;2023-12-20T04:28:32;4.35;72.87
68746;SHT31;73143;45.456;11.064;2023-12-20T04:31:09;4.37;72.85
68746;SHT31;73143;45.456;11.064;2023-12-20T04:33:46;4.38;72.81
68746;SHT31;73143;45.456;11.064;2023-12-20T04:36:23;4.39;72.78
68746;SHT31;73143;45.456;11.064;2023-12-20T04:39:00;4.39;72.86
68746;SHT31;73143;45.456;11.064;2023-12-20T04:41:38;4.40;72.84
68746;SHT31;73143;45.456;11.064;2023-12-20T04:44:16;4.41;72.84
68746;SHT31;73143;45.456;11.064;2023-12-20T04:46:53;4.43;73.00
68746;SHT31;73143;45.456;11.064;2023-12-20T04:49:30;4.45;72.99
68746;SHT31;73143;45.456;11.064;2023-12-20T04:52:07;4.46;72.89
68746;SHT31;73143;45.456;11.064;2023-12-20T04:54:43;4.50;72.58
68746;SHT31;73143;45.456;11.064;2023-12-20T04:57:20;4.53;72.45
68746;SHT31;73143;45.456;11.064;2023-12-20T04:59:57;4.52;72.38
68746;SHT31;73143;45.456;11.064;2023-12-20T05:02:35;4.52;72.38
68746;SHT31;73143;45.456;11.064;2023-12-20T05:05:11;4.53;72.48
68746;SHT31;73143;45.456;11.064;2023-12-20T05:07:48;4.53;72.53
68746;SHT31;73143;45.456;11.064;2023-12-20T05:10:25;4.52;72.57
68746;SHT31;73143;45.456;11.064;2023-12-20T05:13:02;4.48;72.82
68746;SHT31;73143;45.456;11.064;2023-12-20T05:15:39;4.45;73.08
68746;SHT31;73143;45.456;11.064;2023-12-20T05:18:15;4.47;73.12
68746;SHT31;73143;45.456;11.064;2023-12-20T05:20:52;4.47;73.31
68746;SHT31;73143;45.456;11.064;2023-12-20T05:23:28;4.48;73.17
68746;SHT31;73143;45.456;11.064;2023-12-20T05:26:05;4.50;73.03
68746;SHT31;73143;45.456;11.064;2023-12-20T05:28:41;4.51;73.02
68746;SHT31;73143;45.456;11.064;2023-12-20T05:31:18;4.55;73.00
68746;SHT31;73143;45.456;11.064;2023-12-20T05:33:55;4.58;73.04
68746;SHT31;73143;45.456;11.064;2023-12-20T05:36:31;4.64;72.94
68746;SHT31;73143;45.456;11.064;2023-12-20T05:39:08;4.68;72.73
68746;SHT31;73143;45.456;11.064;2023-12-20T05:41:45;4.73;72.56
68746;SHT31;73143;45.456;11.064;2023-12-20T05:44:21;4.75;72.60
68746;SHT31;73143;45.456;11.064;2023-12-20T05:46:58;4.74;72.60
68746;SHT31;73143;45.456;11.064;2023-12-20T05:49:36;4.72;72.70
68746;SHT31;73143;45.456;11.064;2023-12-20T05:52:14;4.72;72.76
68746;SHT31;73143;45.456;11.064;2023-12-20T05:54:51;4.69;72.67
68746;SHT31;73143;45.456;11.064;2023-12-20T05:57:31;4.70;72.70
68746;SHT31;73143;45.456;11.064;2023-12-20T06:00:10;4.76;72.46
68746;SHT31;73143;45.456;11.064;2023-12-20T06:02:54;4.83;72.30
68746;SHT31;73143;45.456;11.064;2023-12-20T06:05:30;4.87;72.52
68746;SHT31;73143;45.456;11.064;2023-12-20T06:08:08;4.89;72.70
68746;SHT31;73143;45.456;11.064;2023-12-20T06:10:45;4.91;72.77
68746;SHT31;73143;45.456;11.064;2023-12-20T06:13:23;4.91;72.69
68746;SHT31;73143;45.456;11.064;2023-12-20T06:15:59;4.91;72.70
68746;SHT31;73143;45.456;11.064;2023-12-20T06:18:39;4.91;72.59
68746;SHT31;73143;45.456;11.064;2023-12-20T06:21:17;4.90;72.78
68746;SHT31;73143;45.456;11.064;2023-12-20T06:23:53;4.87;72.97
68746;SHT31;73143;45.456;11.064;2023-12-20T06:26:30;4.82;73.27
68746;SHT31;73143;45.456;11.064;2023-12-20T06:29:08;4.79;73.62
68746;SHT31;73143;45.456;11.064;2023-12-20T06:31:45;4.82;73.61
68746;SHT31;73143;45.456;11.064;2023-12-20T06:34:22;4.86;73.52
68746;SHT31;73143;45.456;11.064;2023-12-20T06:36:59;4.90;73.30
68746;SHT31;73143;45.456;11.064;2023-12-20T06:39:36;4.95;73.21
68746;SHT31;73143;45.456;11.064;2023-12-20T06:42:14;5.00;73.08
68746;SHT31;73143;45.456;11.064;2023-12-20T06:44:51;5.01;73.13
68746;SHT31;73143;45.456;11.064;2023-12-20T06:47:28;4.96;73.31
68746;SHT31;73143;45.456;11.064;2023-12-20T06:50:06;4.89;73.47
68746;SHT31;73143;45.456;11.064;2023-12-20T06:52:44;4.86;73.65
68746;SHT31;73143;45.456;11.064;2023-12-20T06:55:21;4.87;73.77
68746;SHT31;73143;45.456;11.064;2023-12-20T06:57:58;4.87;73.78
68746;SHT31;73143;45.456;11.064;2023-12-20T07:00:35;4.89;73.80
68746;SHT31;73143;45.456;11.064;2023-12-20T07:03:12;4.91;73.83
68746;SHT31;73143;45.456;11.064;2023-12-20T07:05:49;4.93;73.91
68746;SHT31;73143;45.456;11.064;2023-12-20T07:08:26;4.93;73.99
68746;SHT31;73143;45.456;11.064;2023-12-20T07:11:03;4.96;74.04
68746;SHT31;73143;45.456;11.064;2023-12-20T07:13:40;5.01;74.10
68746;SHT31;73143;45.456;11.064;2023-12-20T07:16:18;5.04;74.05
68746;SHT31;73143;45.456;11.064;2023-12-20T07:18:56;5.04;74.02
68746;SHT31;73143;45.456;11.064;2023-12-20T07:21:33;5.03;73.94
68746;SHT31;73143;45.456;11.064;2023-12-20T07:24:10;5.03;73.79
68746;SHT31;73143;45.456;11.064;2023-12-20T07:26:47;5.01;73.71
68746;SHT31;73143;45.456;11.064;2023-12-20T07:29:25;5.00;73.73
68746;SHT31;73143;45.456;11.064;2023-12-20T07:32:01;4.99;73.30
68746;SHT31;73143;45.456;11.064;2023-12-20T07:34:41;4.98;72.81
68746;SHT31;73143;45.456;11.064;2023-12-20T07:37:19;4.99;72.92
68746;SHT31;73143;45.456;11.064;2023-12-20T07:39:57;5.01;73.34
68746;SHT31;73143;45.456;11.064;2023-12-20T07:42:34;5.03;73.50
68746;SHT31;73143;45.456;11.064;2023-12-20T07:45:11;5.04;73.60
68746;SHT31;73143;45.456;11.064;2023-12-20T07:47:48;5.04;73.47
68746;SHT31;73143;45.456;11.064;2023-12-20T07:50:25;5.05;73.39
68746;SHT31;73143;45.456;11.064;2023-12-20T07:53:04;5.02;73.66
68746;SHT31;73143;45.456;11.064;2023-12-20T07:55:41;5.02;73.94
68746;SHT31;73143;45.456;11.064;2023-12-20T07:58:18;5.05;73.98
68746;SHT31;73143;45.456;11.064;2023-12-20T08:01:13;5.07;74.64
68746;SHT31;73143;45.456;11.064;2023-12-20T08:03:51;5.11;74.52
68746;SHT31;73143;45.456;11.064;2023-12-20T08:06:28;5.14;74.44
68746;SHT31;73143;45.456;11.064;2023-12-20T08:09:05;5.18;74.59
68746;SHT31;73143;45.456;11.064;2023-12-20T08:11:42;5.24;74.58
68746;SHT31;73143;45.456;11.064;2023-12-20T08:14:21;5.28;74.34
68746;SHT31;73143;45.456;11.064;2023-12-20T08:16:58;5.33;74.01
68746;SHT31;73143;45.456;11.064;2023-12-20T08:19:39;5.39;74.10
68746;SHT31;73143;45.456;11.064;2023-12-20T08:22:17;5.45;74.30
68746;SHT31;73143;45.456;11.064;2023-12-20T08:24:53;5.49;74.58
68746;SHT31;73143;45.456;11.064;2023-12-20T08:27:30;5.53;74.52
68746;SHT31;73143;45.456;11.064;2023-12-20T08:30:10;5.58;74.39
68746;SHT31;73143;45.456;11.064;2023-12-20T08:32:51;5.62;74.63
68746;SHT31;73143;45.456;11.064;2023-12-20T08:35:26;5.61;74.90
68746;SHT31;73143;45.456;11.064;2023-12-20T08:38:04;5.63;75.14
68746;SHT31;73143;45.456;11.064;2023-12-20T08:40:40;5.64;75.49
68746;SHT31;73143;45.456;11.064;2023-12-20T08:43:17;5.66;75.66
68746;SHT31;73143;45.456;11.064;2023-12-20T08:45:54;5.68;75.71
68746;SHT31;73143;45.456;11.064;2023-12-20T08:48:31;5.70;75.41
68746;SHT31;73143;45.456;11.064;2023-12-20T08:51:09;5.74;74.91
68746;SHT31;73143;45.456;11.064;2023-12-20T08:53:46;5.76;74.30
68746;SHT31;73143;45.456;11.064;2023-12-20T08:56:23;5.80;74.27
68746;SHT31;73143;45.456;11.064;2023-12-20T08:58:59;5.83;74.40
68746;SHT31;73143;45.456;11.064;2023-12-20T09:01:36;5.86;74.54
68746;SHT31;73143;45.456;11.064;2023-12-20T09:04:13;5.90;74.73
68746;SHT31;73143;45.456;11.064;2023-12-20T09:06:50;5.92;74.71
68746;SHT31;73143;45.456;11.064;2023-12-20T09:09:28;5.93;74.89
68746;SHT31;73143;45.456;11.064;2023-12-20T09:12:08;5.93;75.14
68746;SHT31;73143;45.456;11.064;2023-12-20T09:14:47;5.94;75.30
68746;SHT31;73143;45.456;11.064;2023-12-20T09:17:25;5.96;75.30
68746;SHT31;73143;45.456;11.064;2023-12-20T09:20:03;5.97;75.33
68746;SHT31;73143;45.456;11.064;2023-12-20T09:22:44;5.98;75.39
68746;SHT31;73143;45.456;11.064;2023-12-20T09:25:21;5.99;75.47
68746;SHT31;73143;45.456;11.064;2023-12-20T09:27:57;6.01;75.54
68746;SHT31;73143;45.456;11.064;2023-12-20T09:30:34;6.02;75.50
68746;SHT31;73143;45.456;11.064;2023-12-20T09:33:11;6.05;75.38
68746;SHT31;73143;45.456;11.064;2023-12-20T09:35:47;6.07;75.38
68746;SHT31;73143;45.456;11.064;2023-12-20T09:38:24;6.09;75.35
68746;SHT31;73143;45.456;11.064;2023-12-20T09:41:01;6.10;75.37
68746;SHT31;73143;45.456;11.064;2023-12-20T09:43:39;6.10;75.28
68746;SHT31;73143;45.456;11.064;2023-12-20T09:46:16;6.09;75.20
68746;SHT31;73143;45.456;11.064;2023-12-20T09:49:01;6.10;75.12
68746;SHT31;73143;45.456;11.064;2023-12-20T09:51:38;6.12;75.20
68746;SHT31;73143;45.456;11.064;2023-12-20T09:54:17;6.14;75.15
68746;SHT31;73143;45.456;11.064;2023-12-20T09:56:54;6.19;75.00
68746;SHT31;73143;45.456;11.064;2023-12-20T09:59:31;6.22;75.10
68746;SHT31;73143;45.456;11.064;2023-12-20T10:02:09;6.24;75.04
68746;SHT31;73143;45.456;11.064;2023-12-20T10:04:54;6.27;75.02
68746;SHT31;73143;45.456;11.064;2023-12-20T10:07:32;6.30;74.86
68746;SHT31;73143;45.456;11.064;2023-12-20T10:10:10;6.33;74.80
68746;SHT31;73143;45.456;11.064;2023-12-20T10:15:43;6.38;74.58
68746;SHT31;73143;45.456;11.064;2023-12-20T10:18:21;6.40;74.34
68746;SHT31;73143;45.456;11.064;2023-12-20T10:21:07;6.42;74.30
68746;SHT31;73143;45.456;11.064;2023-12-20T10:23:44;6.46;74.11
68746;SHT31;73143;45.456;11.064;2023-12-20T10:26:22;6.48;74.11
68746;SHT31;73143;45.456;11.064;2023-12-20T10:29:01;6.53;74.06
68746;SHT31;73143;45.456;11.064;2023-12-20T10:31:38;6.55;73.90
68746;SHT31;73143;45.456;11.064;2023-12-20T10:34:15;6.58;73.82
68746;SHT31;73143;45.456;11.064;2023-12-20T10:36:52;6.61;73.63
68746;SHT31;73143;45.456;11.064;2023-12-20T10:39:31;6.62;73.42
68746;SHT31;73143;45.456;11.064;2023-12-20T10:42:08;6.65;73.43
68746;SHT31;73143;45.456;11.064;2023-12-20T10:44:46;6.66;73.51
68746;SHT31;73143;45.456;11.064;2023-12-20T10:47:26;6.68;73.63
68746;SHT31;73143;45.456;11.064;2023-12-20T10:50:08;6.69;73.56
68746;SHT31;73143;45.456;11.064;2023-12-20T10:52:48;6.69;73.46
68746;SHT31;73143;45.456;11.064;2023-12-20T10:55:26;6.71;73.55
68746;SHT31;73143;45.456;11.064;2023-12-20T10:58:06;6.71;73.40
68746;SHT31;73143;45.456;11.064;2023-12-20T11:00:45;6.73;73.03
68746;SHT31;73143;45.456;11.064;2023-12-20T11:03:29;6.72;72.80
68746;SHT31;73143;45.456;11.064;2023-12-20T11:06:16;6.74;72.57
68746;SHT31;73143;45.456;11.064;2023-12-20T11:09:10;6.76;72.55
68746;SHT31;73143;45.456;11.064;2023-12-20T11:12:01;6.78;72.72
68746;SHT31;73143;45.456;11.064;2023-12-20T11:14:47;6.79;72.41
68746;SHT31;73143;45.456;11.064;2023-12-20T11:17:26;6.82;72.49
68746;SHT31;73143;45.456;11.064;2023-12-20T11:20:08;6.83;72.60
68746;SHT31;73143;45.456;11.064;2023-12-20T11:22:54;6.86;72.54
68746;SHT31;73143;45.456;11.064;2023-12-20T11:25:31;6.88;72.61
68746;SHT31;73143;45.456;11.064;2023-12-20T11:28:24;6.90;72.36
68746;SHT31;73143;45.456;11.064;2023-12-20T11:31:02;6.93;72.24
68746;SHT31;73143;45.456;11.064;2023-12-20T11:33:40;6.94;72.37
68746;SHT31;73143;45.456;11.064;2023-12-20T11:36:18;6.97;72.36
68746;SHT31;73143;45.456;11.064;2023-12-20T11:39:04;7.00;72.10
68746;SHT31;73143;45.456;11.064;2023-12-20T11:41:42;7.03;72.12
68746;SHT31;73143;45.456;11.064;2023-12-20T11:44:24;7.05;72.10
68746;SHT31;73143;45.456;11.064;2023-12-20T11:47:05;7.07;71.93
68746;SHT31;73143;45.456;11.064;2023-12-20T11:49:44;7.11;71.83
68746;SHT31;73143;45.456;11.064;2023-12-20T11:52:24;7.15;71.78
68746;SHT31;73143;45.456;11.064;2023-12-20T11:55:01;7.16;71.70
68746;SHT31;73143;45.456;11.064;2023-12-20T11:57:39;7.18;71.88
68746;SHT31;73143;45.456;11.064;2023-12-20T12:00:17;7.22;72.05
68746;SHT31;73143;45.456;11.064;2023-12-20T12:02:59;7.26;72.11
68746;SHT31;73143;45.456;11.064;2023-12-20T12:05:38;7.32;72.10
68746;SHT31;73143;45.456;11.064;2023-12-20T12:08:18;7.36;72.09
68746;SHT31;73143;45.456;11.064;2023-12-20T12:10:55;7.41;71.98
68746;SHT31;73143;45.456;11.064;2023-12-20T12:13:33;7.45;71.83
68746;SHT31;73143;45.456;11.064;2023-12-20T12:16:10;7.49;71.78
68746;SHT31;73143;45.456;11.064;2023-12-20T12:18:56;7.54;71.64
68746;SHT31;73143;45.456;11.064;2023-12-20T12:21:33;7.60;71.44
68746;SHT31;73143;45.456;11.064;2023-12-20T12:24:10;7.64;71.44
68746;SHT31;73143;45.456;11.064;2023-12-20T12:26:56;7.68;71.46
68746;SHT31;73143;45.456;11.064;2023-12-20T12:29:34;7.71;71.45
68746;SHT31;73143;45.456;11.064;2023-12-20T12:32:11;7.73;71.37
68746;SHT31;73143;45.456;11.064;2023-12-20T12:34:50;7.77;71.86
68746;SHT31;73143;45.456;11.064;2023-12-20T12:37:27;7.79;72.22
68746;SHT31;73143;45.456;11.064;2023-12-20T12:40:06;7.80;72.22
68746;SHT31;73143;45.456;11.064;2023-12-20T12:42:46;7.83;72.20
68746;SHT31;73143;45.456;11.064;2023-12-20T12:45:23;7.86;72.05
68746;SHT31;73143;45.456;11.064;2023-12-20T12:47:59;7.90;71.80
68746;SHT31;73143;45.456;11.064;2023-12-20T12:50:38;7.96;71.80
68746;SHT31;73143;45.456;11.064;2023-12-20T12:53:14;8.00;71.62
68746;SHT31;73143;45.456;11.064;2023-12-20T12:55:51;8.06;71.11
68746;SHT31;73143;45.456;11.064;2023-12-20T12:58:28;8.12;71.08
68746;SHT31;73143;45.456;11.064;2023-12-20T13:01:05;8.17;70.94
68746;SHT31;73143;45.456;11.064;2023-12-20T13:03:42;8.24;70.79
68746;SHT31;73143;45.456;11.064;2023-12-20T13:06:19;8.31;70.68
68746;SHT31;73143;45.456;11.064;2023-12-20T13:08:56;8.36;70.55
68746;SHT31;73143;45.456;11.064;2023-12-20T13:11:33;8.41;70.46
68746;SHT31;73143;45.456;11.064;2023-12-20T13:14:11;8.52;70.40
68746;SHT31;73143;45.456;11.064;2023-12-20T13:16:48;8.62;70.31
68746;SHT31;73143;45.456;11.064;2023-12-20T13:19:25;8.70;70.27
68746;SHT31;73143;45.456;11.064;2023-12-20T13:22:03;8.78;70.19
68746;SHT31;73143;45.456;11.064;2023-12-20T13:24:40;8.89;70.12
68746;SHT31;73143;45.456;11.064;2023-12-20T13:27:17;9.00;69.87
68746;SHT31;73143;45.456;11.064;2023-12-20T13:29:55;9.11;69.41
68746;SHT31;73143;45.456;11.064;2023-12-20T13:32:32;9.23;69.09
68746;SHT31;73143;45.456;11.064;2023-12-20T13:35:09;9.31;68.84
68746;SHT31;73143;45.456;11.064;2023-12-20T13:37:46;9.39;68.40
68746;SHT31;73143;45.456;11.064;2023-12-20T13:40:27;9.48;67.57
68746;SHT31;73143;45.456;11.064;2023-12-20T13:43:05;9.52;66.73
68746;SHT31;73143;45.456;11.064;2023-12-20T13:45:43;9.50;66.68
68746;SHT31;73143;45.456;11.064;2023-12-20T13:48:20;9.46;67.07
68746;SHT31;73143;45.456;11.064;2023-12-20T13:50:57;9.40;67.23
68746;SHT31;73143;45.456;11.064;2023-12-20T13:53:34;9.34;67.33
68746;SHT31;73143;45.456;11.064;2023-12-20T13:56:12;9.30;67.43
68746;SHT31;73143;45.456;11.064;2023-12-20T13:58:49;9.25;67.17
68746;SHT31;73143;45.456;11.064;2023-12-20T14:01:26;9.19;67.22
68746;SHT31;73143;45.456;11.064;2023-12-20T14:04:03;9.17;67.43
68746;SHT31;73143;45.456;11.064;2023-12-20T14:07:00;9.16;67.49
68746;SHT31;73143;45.456;11.064;2023-12-20T14:09:39;9.17;67.35
68746;SHT31;73143;45.456;11.064;2023-12-20T14:12:15;9.18;67.53
68746;SHT31;73143;45.456;11.064;2023-12-20T14:14:52;9.18;67.67
68746;SHT31;73143;45.456;11.064;2023-12-20T14:17:29;9.17;67.75
68746;SHT31;73143;45.456;11.064;2023-12-20T14:20:08;9.19;67.90
68746;SHT31;73143;45.456;11.064;2023-12-20T14:22:46;9.19;67.95
68746;SHT31;73143;45.456;11.064;2023-12-20T14:25:23;9.19;68.05
68746;SHT31;73143;45.456;11.064;2023-12-20T14:28:14;9.17;68.20
68746;SHT31;73143;45.456;11.064;2023-12-20T14:30:50;9.14;68.38
68746;SHT31;73143;45.456;11.064;2023-12-20T14:33:28;9.12;68.51
68746;SHT31;73143;45.456;11.064;2023-12-20T14:36:06;9.12;68.69
68746;SHT31;73143;45.456;11.064;2023-12-20T14:38:46;9.13;68.79
68746;SHT31;73143;45.456;11.064;2023-12-20T14:41:23;9.13;68.91
68746;SHT31;73143;45.456;11.064;2023-12-20T14:44:01;9.13;69.00
68746;SHT31;73143;45.456;11.064;2023-12-20T14:46:38;9.12;69.14
68746;SHT31;73143;45.456;11.064;2023-12-20T14:49:14;9.12;69.14
68746;SHT31;73143;45.456;11.064;2023-12-20T14:51:52;9.10;69.08
68746;SHT31;73143;45.456;11.064;2023-12-20T14:54:29;9.09;69.19
68746;SHT31;73143;45.456;11.064;2023-12-20T14:57:05;9.06;69.32
68746;SHT31;73143;45.456;11.064;2023-12-20T14:59:41;9.00;69.42
68746;SHT31;73143;45.456;11.064;2023-12-20T15:02:18;8.97;69.51
68746;SHT31;73143;45.456;11.064;2023-12-20T15:04:54;8.92;69.52
68746;SHT31;73143;45.456;11.064;2023-12-20T15:07:32;8.85;69.64
68746;SHT31;73143;45.456;11.064;2023-12-20T15:10:11;8.80;69.76
68746;SHT31;73143;45.456;11.064;2023-12-20T15:12:50;8.75;69.92
68746;SHT31;73143;45.456;11.064;2023-12-20T15:15:27;8.72;70.00
68746;SHT31;73143;45.456;11.064;2023-12-20T15:18:05;8.70;69.94
68746;SHT31;73143;45.456;11.064;2023-12-20T15:20:42;8.67;70.15
68746;SHT31;73143;45.456;11.064;2023-12-20T15:23:19;8.63;70.36
68746;SHT31;73143;45.456;11.064;2023-12-20T15:25:57;8.58;70.57
68746;SHT31;73143;45.456;11.064;2023-12-20T15:28:35;8.51;70.68
68746;SHT31;73143;45.456;11.064;2023-12-20T15:31:12;8.44;70.75
68746;SHT31;73143;45.456;11.064;2023-12-20T15:33:55;8.35;70.87
68746;SHT31;73143;45.456;11.064;2023-12-20T15:36:32;8.27;71.07
68746;SHT31;73143;45.456;11.064;2023-12-20T15:39:10;8.21;70.97
68746;SHT31;73143;45.456;11.064;2023-12-20T15:41:47;8.16;70.49
68746;SHT31;73143;45.456;11.064;2023-12-20T15:44:24;8.10;70.17
68746;SHT31;73143;45.456;11.064;2023-12-20T15:47:02;8.04;70.38
68746;SHT31;73143;45.456;11.064;2023-12-20T15:49:39;7.99;70.62
68746;SHT31;73143;45.456;11.064;2023-12-20T15:52:19;7.93;70.77
68746;SHT31;73143;45.456;11.064;2023-12-20T15:54:57;7.86;70.62
68746;SHT31;73143;45.456;11.064;2023-12-20T15:57:35;7.79;70.87
68746;SHT31;73143;45.456;11.064;2023-12-20T16:00:22;7.72;71.15
68746;SHT31;73143;45.456;11.064;2023-12-20T16:03:00;7.63;70.93
68746;SHT31;73143;45.456;11.064;2023-12-20T16:05:53;7.51;71.00
68746;SHT31;73143;45.456;11.064;2023-12-20T16:08:30;7.43;71.10
68746;SHT31;73143;45.456;11.064;2023-12-20T16:11:09;7.38;71.13
68746;SHT31;73143;45.456;11.064;2023-12-20T16:13:45;7.36;70.95
68746;SHT31;73143;45.456;11.064;2023-12-20T16:16:22;7.32;71.08
68746;SHT31;73143;45.456;11.064;2023-12-20T16:18:59;7.27;71.40
68746;SHT31;73143;45.456;11.064;2023-12-20T16:21:36;7.22;71.54
68746;SHT31;73143;45.456;11.064;2023-12-20T16:24:13;7.17;71.85
68746;SHT31;73143;45.456;11.064;2023-12-20T16:26:49;7.13;71.71
68746;SHT31;73143;45.456;11.064;2023-12-20T16:29:26;7.05;71.50
68746;SHT31;73143;45.456;11.064;2023-12-20T16:32:03;6.99;71.49
68746;SHT31;73143;45.456;11.064;2023-12-20T16:34:41;6.95;71.39
68746;SHT31;73143;45.456;11.064;2023-12-20T16:37:17;6.89;71.51
68746;SHT31;73143;45.456;11.064;2023-12-20T16:39:54;6.85;71.64